Time;durP1;ratioP1;P1;durP2;ratioP2;P2;SDS_P1;SDS_P2;PMS_P1;PMS_P2;Temp;Humidity;BMP_temperature;BMP_pressure;BME280_temperature;BME280_humidity;BME280_pressure;Samples;Min_cycle;Max_cycle;Signal;HPM_P1;HPM_P2
2022/02/10 00:04:15;;;;;;;;;;;;;;;1.95;91.88;101424.66;5066779;28;20051;-67
2022/02/10 00:21:46;;;;;;;53.20;29.08;;;;;;;1.74;92.70;101425.41;5067432;28;20037;-67
2022/02/10 00:35:21;;;;;;;49.35;27.95;;;;;;;1.71;92.05;101435.22;5055321;28;20472;-67
2022/02/10 00:37:57;;;;;;;50.03;28.33;;;;;;;1.69;91.69;101434.41;5067088;28;20070;-67
2022/02/10 00:40:25;;;;;;;51.13;29.00;;;;;;;1.71;91.77;101441.38;5066578;28;20032;-67
2022/02/10 00:42:50;;;;;;;50.95;28.83;;;;;;;1.69;91.99;101444.97;5065511;28;20040;-67
2022/02/10 00:45:16;;;;;;;50.38;28.10;;;;;;;1.74;93.01;101443.06;5066858;28;20031;-68
2022/02/10 00:48:15;;;;;;;51.13;29.50;;;;;;;1.72;93.05;101440.47;5065250;28;20024;-67
2022/02/10 00:50:35;;;;;;;49.20;28.35;;;;;;;1.71;92.93;101438.72;5065603;28;20093;-68
2022/02/10 00:53:23;;;;;;;50.35;29.27;;;;;;;1.68;93.12;101436.19;5066659;28;20040;-67
2022/02/10 00:55:49;;;;;;;54.30;29.92;;;;;;;1.70;93.44;101444.94;5066937;28;20028;-67
2022/02/10 00:58:25;;;;;;;50.38;28.98;;;;;;;1.66;93.79;101443.31;5066390;28;20032;-67
2022/02/10 01:12:15;;;;;;;52.10;27.50;;;;;;;1.65;94.33;101446.84;5068838;28;20106;-72
2022/02/10 01:30:21;;;;;;;43.78;25.48;;;;;;;1.61;95.45;101413.50;5068244;28;20026;-72
2022/02/10 01:32:50;;;;;;;48.72;25.95;;;;;;;1.71;95.69;101425.50;5069319;28;20024;-72
2022/02/10 01:35:20;;;;;;;39.40;23.27;;;;;;;1.73;96.03;101423.69;5069632;28;20468;-72
2022/02/10 01:37:46;;;;;;;37.53;21.58;;;;;;;1.77;96.82;101420.00;5068760;28;20036;-72
2022/02/10 01:40:27;;;;;;;35.42;20.58;;;;;;;1.72;97.32;101395.53;5067517;28;20029;-72
2022/02/10 02:04:55;;;;;;;29.50;17.65;;;;;;;2.30;100.00;101381.06;5065398;28;20116;-68
2022/02/10 02:07:27;;;;;;;31.38;17.75;;;;;;;2.38;99.90;101393.09;5065303;28;20534;-68
2022/02/10 02:09:53;;;;;;;32.58;18.13;;;;;;;2.32;99.18;101382.72;5065019;28;20020;-68
2022/02/10 02:12:19;;;;;;;29.95;17.92;;;;;;;2.31;98.56;101373.06;5065943;28;20567;-68
2022/02/10 02:14:44;;;;;;;33.08;18.38;;;;;;;2.30;98.41;101383.69;5065447;28;20024;-67
2022/02/10 02:17:10;;;;;;;29.75;16.83;;;;;;;2.28;97.78;101375.81;5064279;28;20031;-67
2022/02/10 02:19:35;;;;;;;30.05;16.42;;;;;;;2.34;97.58;101386.19;5065770;28;20788;-68
2022/02/10 02:22:03;;;;;;;30.25;17.83;;;;;;;2.37;97.20;101390.50;5064128;28;20064;-67
2022/02/10 02:24:29;;;;;;;33.33;19.00;;;;;;;2.35;96.50;101394.97;5068824;28;20098;-68
2022/02/10 02:27:00;;;;;;;35.72;20.65;;;;;;;2.31;96.00;101396.88;5069466;28;20044;-68
2022/02/10 02:29:32;;;;;;;41.42;22.17;;;;;;;2.30;95.78;101403.06;5069645;28;20024;-68
2022/02/10 02:32:03;;;;;;;37.45;21.15;;;;;;;2.17;95.20;101385.91;5070420;28;20507;-72
2022/02/10 02:37:36;;;;;;;38.35;23.25;;;;;;;2.11;94.83;101393.22;5070066;28;20112;-67
2022/02/10 03:05:00;;;;;;;43.97;23.77;;;;;;;1.63;95.87;101390.53;5068230;28;20035;-67
2022/02/10 03:07:36;;;;;;;41.58;22.73;;;;;;;1.65;95.68;101401.06;5066984;28;20464;-67
2022/02/10 03:12:48;;;;;;;39.83;20.88;;;;;;;1.59;95.32;101407.44;5066199;28;20036;-72
2022/02/10 03:15:30;;;;;;;34.33;19.98;;;;;;;1.49;95.33;101395.41;5071313;28;20025;-72
2022/02/10 03:18:19;;;;;;;35.35;21.25;;;;;;;1.54;95.54;101403.19;5071205;28;20110;-72
2022/02/10 04:15:09;;;;;;;32.15;17.48;;;;;;;1.75;99.46;101395.41;5066645;28;20054;-67
2022/02/10 04:23:00;;;;;;;33.28;17.75;;;;;;;1.79;98.50;101415.53;5066833;28;20040;-67
2022/02/10 04:39:37;;;;;;;27.23;17.52;;;;;;;1.53;97.41;101375.03;5065707;28;20028;-67
2022/02/10 04:58:11;;;;;;;26.58;15.27;;;;;;;1.42;97.08;101367.47;5066767;28;20039;-67
2022/02/10 05:00:44;;;;;;;32.80;15.73;;;;;;;1.44;97.44;101372.69;5066757;28;20128;-68
2022/02/10 05:03:37;;;;;;;23.40;14.75;;;;;;;1.47;97.60;101373.47;5065887;28;20033;-67
2022/02/10 05:15:09;;;;;;;26.90;14.20;;;;;;;1.30;97.07;101362.63;5066575;28;20044;-67
2022/02/10 05:20:03;;;;;;;26.75;14.70;;;;;;;1.25;96.84;101376.88;5065788;28;20102;-68
2022/02/10 05:22:42;;;;;;;23.63;14.30;;;;;;;1.24;96.83;101381.31;5066259;28;20033;-68
2022/02/10 05:35:47;;;;;;;24.45;15.35;;;;;;;1.01;95.98;101391.75;5066251;28;20036;-67
2022/02/10 05:38:18;;;;;;;32.25;15.45;;;;;;;1.04;96.27;101401.34;5062226;28;20065;-67
2022/02/10 05:41:40;;;;;;;27.05;16.63;;;;;;;1.01;95.79;101404.97;5065853;28;20047;-67
2022/02/10 05:44:07;;;;;;;24.52;14.98;;;;;;;0.92;95.15;101393.81;5065395;28;20109;-67
2022/02/10 05:46:56;;;;;;;28.25;16.52;;;;;;;0.90;95.48;101404.41;5065030;28;20032;-67
2022/02/10 05:49:59;;;;;;;27.23;14.82;;;;;;;0.75;95.81;101380.28;5064200;28;20017;-67
2022/02/10 06:00:38;;;;;;;27.90;15.15;;;;;;;0.81;97.04;101407.34;5070323;28;20033;-67
2022/02/10 07:03:16;;;;;;;31.25;19.23;;;;;;;1.25;100.00;101401.53;5069666;28;20085;-68
2022/02/10 07:11:24;;;;;;;30.48;18.55;;;;;;;1.48;100.00;101411.34;5068072;28;20078;-69
2022/02/10 07:17:01;;;;;;;34.33;19.10;;;;;;;1.63;100.00;101406.41;5069504;28;20399;-68
2022/02/10 07:54:13;;;;;;;36.75;22.88;;;;;;;3.53;100.00;101369.91;5068180;28;20476;-67
2022/02/10 08:59:49;;;;;;;23.15;15.10;;;;;;;6.70;94.21;101317.69;5068127;28;20085;-67
2022/02/10 09:59:39;;;;;;;16.48;10.13;;;;;;;9.19;75.24;101276.28;5068007;28;20044;-67
2022/02/10 10:01:34;;;;;;;;;;;;;;;9.42;74.53;101269.41;5054517;28;20078;-67
2022/02/10 10:04:27;;;;;;;15.73;10.57;;;;;;;9.63;73.52;101265.25;5067032;28;19913;-67
2022/02/10 10:08:08;;;;;;;15.95;10.15;;;;;;;9.92;71.79;101258.72;5063659;28;20039;-67
2022/02/10 10:21:28;;;;;;;16.98;10.70;;;;;;;11.97;61.66;101236.94;5066366;28;20043;-67
2022/02/10 10:56:56;;;;;;;13.02;9.18;;;;;;;12.11;58.45;101195.47;5069927;28;20039;-67
2022/02/10 11:38:09;;;;;;;14.23;7.10;;;;;;;12.33;56.66;101128.22;5068685;28;20027;-66
2022/02/10 11:40:54;;;;;;;13.23;7.45;;;;;;;12.36;56.37;101117.19;5068635;28;20123;-67
2022/02/10 11:43:44;;;;;;;14.02;8.43;;;;;;;12.35;56.18;101116.34;5068835;28;20036;-67
2022/02/10 14:14:59;;;;;;;6.50;3.75;;;;;;;13.95;49.65;100945.97;5066666;28;20039;-69
2022/02/10 14:17:36;;;;;;;7.13;3.80;;;;;;;14.01;48.77;100935.50;5065333;28;20030;-69
2022/02/10 14:20:21;;;;;;;5.50;3.83;;;;;;;14.06;48.97;100932.38;5068599;28;20052;-69
2022/02/10 14:23:04;;;;;;;5.30;4.00;;;;;;;14.03;47.61;100917.34;5069405;28;20109;-69
2022/02/10 14:25:53;;;;;;;7.03;3.78;;;;;;;14.09;46.64;100916.72;5071055;28;20032;-69
2022/02/10 14:28:21;;;;;;;6.53;3.72;;;;;;;14.08;46.80;100924.97;5070782;28;20025;-69
2022/02/10 14:30:47;;;;;;;4.85;3.15;;;;;;;14.07;46.56;100925.97;5070724;28;20024;-69
2022/02/10 14:33:14;;;;;;;5.18;3.25;;;;;;;14.04;46.10;100921.72;5070477;28;20032;-69
2022/02/10 14:39:09;;;;;;;5.70;3.72;;;;;;;14.11;46.70;100939.03;5070525;28;20032;-67
2022/02/10 15:28:51;;;;;;;8.80;6.10;;;;;;;13.76;47.12;100930.63;5070136;28;20051;-67
2022/02/10 15:54:52;;;;;;;25.15;13.65;;;;;;;12.88;50.39;100937.72;5069492;28;20032;-67
2022/02/10 16:11:00;;;;;;;15.65;9.95;;;;;;;12.30;50.89;100930.28;5068753;28;20067;-68
2022/02/10 16:16:51;;;;;;;39.95;22.98;;;;;;;12.12;50.41;100931.00;5068834;28;20164;-68
2022/02/10 16:18:51;;;;;;;32.92;19.45;;;;;;;12.01;51.29;100931.88;5065024;28;20518;-67
2022/02/10 16:21:28;;;;;;;29.45;17.20;;;;;;;11.93;51.06;100918.22;5067242;28;20550;-67
2022/02/10 16:24:00;;;;;;;21.98;13.57;;;;;;;11.83;50.99;100913.75;5069226;28;20133;-68
2022/02/10 16:26:35;;;;;;;20.17;12.68;;;;;;;11.77;51.64;100916.97;5069172;28;20027;-68
2022/02/10 16:29:02;;;;;;;17.80;11.02;;;;;;;11.60;51.49;100926.38;5069118;28;20028;-67
2022/02/10 16:31:27;;;;;;;20.30;11.48;;;;;;;11.55;51.84;100942.03;5069061;28;20023;-67
2022/02/10 16:33:54;;;;;;;22.65;12.82;;;;;;;11.45;52.06;100938.41;5068913;28;20043;-68
2022/02/10 16:36:20;;;;;;;19.45;12.43;;;;;;;11.27;52.64;100931.81;5067749;28;20036;-67
2022/02/10 16:38:46;;;;;;;22.23;12.75;;;;;;;11.15;52.88;100940.84;5069028;28;20495;-67
2022/02/10 16:41:15;;;;;;;25.00;13.48;;;;;;;11.07;53.05;100952.19;5068954;28;20035;-67
2022/02/10 16:43:42;;;;;;;27.92;13.38;;;;;;;10.96;53.67;100960.25;5066504;28;20107;-67
2022/02/10 16:46:10;;;;;;;23.52;12.07;;;;;;;10.83;54.26;100951.47;5068714;28;20020;-68
2022/02/10 16:48:37;;;;;;;23.48;13.30;;;;;;;10.73;54.50;100958.53;5068773;28;20059;-67
2022/02/10 16:51:08;;;;;;;25.00;13.25;;;;;;;10.52;54.93;100943.28;5068648;28;20467;-67
2022/02/10 16:53:33;;;;;;;30.02;13.63;;;;;;;10.44;55.40;100951.91;5064107;28;20471;-67
2022/02/10 16:56:07;;;;;;;33.25;12.15;;;;;;;10.28;55.48;100948.69;5067149;28;20082;-67
2022/02/10 16:58:46;;;;;;;31.23;15.07;;;;;;;10.19;55.64;100957.41;5066940;28;20036;-67
2022/02/10 17:19:59;;;;;;;43.03;17.00;;;;;;;9.21;59.01;100948.72;5065405;28;20083;-67
2022/02/10 17:27:37;;;;;;;37.50;16.27;;;;;;;8.88;60.75;100935.09;5066633;28;20064;-68
2022/02/10 17:35:19;;;;;;;28.02;14.25;;;;;;;8.68;61.32;100932.94;5063926;28;20127;-68
2022/02/10 17:46:11;;;;;;;30.50;16.05;;;;;;;8.43;62.61;100927.63;5064763;28;20114;-70
2022/02/10 17:53:54;;;;;;;26.77;17.05;;;;;;;8.27;63.36;100944.81;5067172;28;20066;-68
2022/02/10 17:56:20;;;;;;;26.52;16.65;;;;;;;8.17;63.81;100944.56;5068884;28;20082;-69
2022/02/10 17:58:48;;;;;;;32.97;20.73;;;;;;;8.13;63.50;100940.34;5070575;28;20024;-68
2022/02/10 18:01:14;;;;;;;32.67;19.80;;;;;;;8.07;64.44;100951.50;5069795;28;20102;-69
2022/02/10 18:03:39;;;;;;;31.38;20.85;;;;;;;7.87;64.39;100919.91;5070974;28;20028;-68
2022/02/10 18:08:44;;;;;;;30.23;20.75;;;;;;;7.95;64.88;100963.00;5070548;28;20056;-68
2022/02/10 18:16:24;;;;;;;43.95;27.73;;;;;;;7.83;65.83;100960.28;5069476;28;20083;-68
2022/02/10 18:18:55;;;;;;;46.85;27.45;;;;;;;7.83;66.13;100966.47;5069763;28;20135;-68
2022/02/10 18:24:04;;;;;;;54.63;31.40;;;;;;;7.82;65.33;100959.41;5070633;28;20449;-68
2022/02/10 18:29:33;;;;;;;49.78;28.33;;;;;;;7.84;65.63;100960.16;5069923;28;20052;-69
2022/02/10 19:03:08;;;;;;;55.58;27.77;;;;;;;7.99;61.68;100927.09;5068946;28;20043;-69
2022/02/10 19:08:08;;;;;;;37.67;21.20;;;;;;;8.19;60.64;100947.13;5069225;28;20047;-69
2022/02/10 19:10:38;;;;;;;35.65;20.52;;;;;;;8.13;60.51;100944.88;5068441;28;20041;-69
2022/02/10 19:13:06;;;;;;;36.38;21.00;;;;;;;8.21;60.15;100945.19;5068931;28;20491;-69
2022/02/10 19:15:34;;;;;;;38.10;22.27;;;;;;;8.12;60.14;100932.44;5070574;28;20090;-70
2022/02/10 19:18:02;;;;;;;39.22;22.02;;;;;;;8.10;60.24;100937.88;5069498;28;20048;-67
2022/02/10 19:20:28;;;;;;;36.83;20.85;;;;;;;8.20;59.46;100941.69;5067498;28;20075;-69
2022/02/10 19:22:54;;;;;;;37.88;21.98;;;;;;;8.21;59.70;100932.69;5069354;28;20036;-68
2022/02/10 19:25:23;;;;;;;37.67;20.25;;;;;;;8.16;60.09;100937.47;5067226;28;20023;-70
2022/02/10 19:27:48;;;;;;;41.28;22.48;;;;;;;8.09;59.71;100920.16;5065868;28;20029;-69
2022/02/10 19:30:16;;;;;;;42.75;23.23;;;;;;;8.20;59.49;100935.47;5069030;28;20047;-69
2022/02/10 19:32:48;;;;;;;35.67;20.13;;;;;;;8.13;60.13;100940.34;5067330;28;20039;-69
2022/02/10 19:35:16;;;;;;;34.92;21.33;;;;;;;8.18;59.55;100926.69;5068103;28;20123;-69
2022/02/10 19:37:42;;;;;;;39.25;21.10;;;;;;;8.02;59.92;100902.84;5067683;28;20024;-68
2022/02/10 19:40:08;;;;;;;36.40;21.98;;;;;;;8.05;59.66;100923.13;5066319;28;20630;-68
2022/02/10 19:42:36;;;;;;;38.58;21.23;;;;;;;8.01;60.08;100917.16;5069363;28;20107;-69
2022/02/10 19:45:04;;;;;;;42.33;24.15;;;;;;;8.03;59.70;100930.44;5068935;28;20161;-68
2022/02/10 19:47:32;;;;;;;46.63;23.05;;;;;;;7.99;60.09;100926.22;5069248;28;20399;-69
2022/02/10 19:49:59;;;;;;;43.22;23.50;;;;;;;7.95;59.86;100935.41;5069096;28;20125;-69
2022/02/10 19:52:25;;;;;;;37.88;22.92;;;;;;;7.88;59.88;100931.44;5067660;28;20113;-69
2022/02/10 19:54:55;;;;;;;36.33;21.42;;;;;;;7.76;60.52;100918.91;5068324;28;20060;-69
2022/02/10 19:57:23;;;;;;;37.72;20.90;;;;;;;7.86;59.77;100918.19;5068166;28;20040;-69
2022/02/10 19:59:49;;;;;;;41.55;22.73;;;;;;;7.80;59.91;100923.09;5068075;28;20179;-68
2022/02/10 20:02:17;;;;;;;41.25;22.73;;;;;;;7.75;60.45;100931.41;5068305;28;20028;-68
2022/02/10 20:04:43;;;;;;;39.67;22.35;;;;;;;7.75;60.98;100938.56;5066320;28;20040;-69
2022/02/10 20:07:11;;;;;;;39.10;21.95;;;;;;;7.70;60.88;100936.19;5067773;28;20495;-69
2022/02/10 20:09:36;;;;;;;39.10;23.42;;;;;;;7.61;60.55;100928.78;5068397;28;20024;-69
2022/02/10 20:12:03;;;;;;;38.03;22.67;;;;;;;7.54;60.55;100922.13;5067295;28;20510;-69
2022/02/10 20:14:28;;;;;;;36.25;21.83;;;;;;;7.57;60.28;100940.63;5067894;28;20372;-68
2022/02/10 20:16:56;;;;;;;38.85;22.42;;;;;;;7.60;60.79;100944.91;5067532;28;20052;-69
2022/02/10 20:19:22;;;;;;;37.42;22.38;;;;;;;7.58;60.76;100944.16;5067793;28;20048;-69
2022/02/10 20:21:47;;;;;;;44.85;25.23;;;;;;;7.56;60.46;100946.06;5066427;28;20036;-68
2022/02/10 20:24:13;;;;;;;41.55;23.50;;;;;;;7.52;60.54;100952.56;5067031;28;20523;-68
2022/02/10 20:26:39;;;;;;;38.65;23.25;;;;;;;7.47;60.92;100947.53;5066554;28;20137;-68
2022/02/10 20:29:05;;;;;;;42.85;24.13;;;;;;;7.37;61.09;100951.75;5066312;28;20484;-68
2022/02/10 20:31:33;;;;;;;43.50;25.73;;;;;;;7.32;61.52;100950.34;5066694;28;20036;-68
2022/02/10 20:33:58;;;;;;;46.97;26.45;;;;;;;7.16;61.98;100944.28;5065336;28;20095;-69
2022/02/10 20:36:24;;;;;;;45.42;26.00;;;;;;;7.07;62.63;100938.56;5066613;28;20059;-69
2022/02/10 20:38:55;;;;;;;45.67;26.95;;;;;;;7.12;62.38;100942.75;5066917;28;20754;-70
2022/02/10 20:41:20;;;;;;;43.28;25.52;;;;;;;7.14;63.12;100962.16;5066113;28;20021;-69
2022/02/10 20:43:48;;;;;;;47.42;25.95;;;;;;;7.04;62.78;100957.41;5067461;28;20036;-69
2022/02/10 20:46:17;;;;;;;40.35;25.80;;;;;;;6.99;63.27;100958.66;5066952;28;20074;-68
2022/02/10 20:48:43;;;;;;;51.25;29.05;;;;;;;6.87;63.25;100946.97;5067143;28;20376;-69
2022/02/10 20:51:12;;;;;;;45.63;26.52;;;;;;;6.87;63.44;100960.28;5066697;28;20391;-69
2022/02/10 20:53:40;;;;;;;46.10;28.35;;;;;;;6.73;63.65;100960.28;5066868;28;20543;-69
2022/02/10 20:56:10;;;;;;;46.92;27.70;;;;;;;6.67;64.04;100954.47;5066394;28;20055;-69
2022/02/10 20:58:38;;;;;;;46.50;27.08;;;;;;;6.61;63.80;100954.88;5063360;28;20054;-69
2022/02/10 21:01:05;;;;;;;45.40;25.95;;;;;;;6.52;64.65;100953.59;5066569;28;20182;-69
2022/02/10 21:03:33;;;;;;;43.88;26.90;;;;;;;6.43;65.38;100956.84;5066730;28;20040;-69
2022/02/10 21:08:52;;;;;;;47.25;27.55;;;;;;;6.22;65.88;100947.47;5066652;28;20047;-69
2022/02/10 21:11:19;;;;;;;42.92;26.52;;;;;;;6.12;66.67;100930.34;5066200;28;20611;-69
2022/02/10 21:13:45;;;;;;;47.65;27.10;;;;;;;6.02;67.09;100930.97;5066815;28;20037;-69
2022/02/10 21:16:10;;;;;;;46.47;27.83;;;;;;;5.91;67.02;100925.44;5066331;28;20128;-69
2022/02/10 21:18:36;;;;;;;47.92;26.58;;;;;;;5.86;67.66;100923.03;5066608;28;20183;-69
2022/02/10 21:21:11;;;;;;;49.90;27.90;;;;;;;5.74;68.10;100915.72;5066564;28;20039;-69
2022/02/10 21:23:45;;;;;;;44.15;25.63;;;;;;;5.71;68.86;100923.06;5066786;28;20056;-69
2022/02/10 21:26:13;;;;;;;47.72;27.85;;;;;;;5.64;69.25;100919.88;5064569;28;20028;-69
2022/02/10 21:28:41;;;;;;;46.45;27.38;;;;;;;5.58;69.58;100927.38;5064445;28;20501;-69
2022/02/10 21:31:08;;;;;;;46.13;25.23;;;;;;;5.44;69.61;100904.22;5066515;28;20103;-69
2022/02/10 21:53:18;;;;;;;45.58;27.00;;;;;;;5.07;72.12;100931.19;5066567;28;20120;-69
2022/02/10 21:55:50;;;;;;;45.17;26.63;;;;;;;5.00;72.03;100919.16;5066012;28;20043;-69
2022/02/10 22:02:32;;;;;;;48.60;27.77;;;;;;;4.87;72.55;100923.44;5066298;28;20032;-69
2022/02/10 22:17:45;;;;;;;45.83;27.13;;;;;;;4.55;74.24;100942.94;5066448;28;20348;-69
2022/02/10 22:20:13;;;;;;;51.08;28.52;;;;;;;4.34;74.53;100923.69;5066533;28;20522;-69
2022/02/10 22:22:50;;;;;;;49.13;27.30;;;;;;;4.41;75.07;100945.44;5065929;28;20028;-70
2022/02/10 22:25:16;;;;;;;53.83;29.13;;;;;;;4.39;75.42;100952.66;5067123;28;20437;-69
2022/02/10 22:27:46;;;;;;;49.33;28.23;;;;;;;4.27;75.85;100943.53;5067276;28;20024;-69
2022/02/10 22:30:22;;;;;;;47.08;26.95;;;;;;;4.30;75.93;100958.44;5067070;28;20081;-69
2022/02/10 22:32:57;;;;;;;50.00;29.58;;;;;;;4.08;76.03;100923.31;5065901;28;20487;-69
2022/02/10 22:35:25;;;;;;;54.25;28.95;;;;;;;4.23;76.64;100951.72;5066796;28;20024;-72
2022/02/10 22:37:53;;;;;;;52.78;29.58;;;;;;;4.25;76.68;100965.75;5068323;28;20108;-72
2022/02/10 22:40:40;;;;;;;48.85;28.58;;;;;;;4.11;76.68;100944.41;5068403;28;20031;-72
2022/02/10 22:43:06;;;;;;;50.20;27.95;;;;;;;4.11;76.77;100934.66;5071392;28;20437;-72
2022/02/10 22:45:31;;;;;;;50.70;27.20;;;;;;;4.19;77.20;100955.47;5071560;28;20107;-72
2022/02/10 22:47:57;;;;;;;49.65;28.77;;;;;;;4.15;77.15;100961.88;5071690;28;20068;-72
2022/02/10 22:50:22;;;;;;;51.30;28.52;;;;;;;4.03;77.22;100939.47;5071933;28;20016;-72
2022/02/10 22:52:48;;;;;;;56.17;29.45;;;;;;;4.11;76.99;100960.31;5070644;28;20020;-68
2022/02/10 22:55:13;;;;;;;50.40;28.67;;;;;;;4.08;76.39;100958.69;5069993;28;20476;-69
2022/02/10 22:57:39;;;;;;;47.92;28.83;;;;;;;4.03;75.62;100959.88;5069992;28;20032;-69
2022/02/10 23:00:08;;;;;;;52.85;29.77;;;;;;;3.86;75.49;100954.53;5069873;28;20077;-69
2022/02/10 23:02:34;;;;;;;53.72;28.63;;;;;;;3.83;75.42;100968.81;5070106;28;20028;-69
2022/02/10 23:05:00;;;;;;;59.65;30.88;;;;;;;3.78;75.53;100964.69;5070024;28;20742;-69
2022/02/10 23:07:26;;;;;;;58.97;30.40;;;;;;;3.70;76.01;100974.78;5069951;28;20032;-69
2022/02/10 23:12:38;;;;;;;58.17;31.67;;;;;;;3.56;76.73;100971.97;5070090;28;20055;-69
2022/02/10 23:15:04;;;;;;;59.85;31.85;;;;;;;3.53;77.28;100975.63;5069819;28;20040;-69
2022/02/10 23:17:29;;;;;;;58.28;32.08;;;;;;;3.45;77.56;100985.75;5069895;28;20032;-69
2022/02/10 23:19:55;;;;;;;60.50;32.38;;;;;;;3.38;78.11;100978.16;5069729;28;20778;-69
2022/02/10 23:22:20;;;;;;;65.75;33.42;;;;;;;3.40;78.45;100992.19;5067320;28;20032;-69
2022/02/10 23:24:46;;;;;;;58.63;31.40;;;;;;;3.32;78.91;100979.31;5069773;28;20111;-69
2022/02/10 23:27:12;;;;;;;56.47;31.08;;;;;;;3.37;80.18;100987.91;5068447;28;20035;-69
2022/02/10 23:29:37;;;;;;;57.65;29.35;;;;;;;3.39;80.60;100988.69;5069676;28;20024;-69
2022/02/10 23:32:04;;;;;;;52.58;29.48;;;;;;;3.47;81.49;101001.56;5068153;28;20048;-70
2022/02/10 23:34:29;;;;;;;51.60;29.60;;;;;;;3.45;81.95;100990.19;5069579;28;20024;-69
2022/02/10 23:36:55;;;;;;;56.30;29.08;;;;;;;3.50;83.02;100990.81;5069738;28;20400;-69
2022/02/10 23:42:06;;;;;;;54.05;29.45;;;;;;;3.57;82.26;100984.28;5069797;28;20056;-69
2022/02/10 23:44:37;;;;;;;57.75;30.08;;;;;;;3.65;82.15;100992.75;5067360;28;20111;-69
2022/02/10 23:47:05;;;;;;;53.10;30.80;;;;;;;3.56;81.47;100972.84;5069689;28;20058;-68
2022/02/10 23:49:33;;;;;;;56.80;30.80;;;;;;;3.60;81.30;100970.88;5069382;28;20024;-69
2022/02/10 23:52:02;;;;;;;56.25;30.58;;;;;;;3.60;81.16;100965.56;5068911;28;20528;-69
2022/02/10 23:54:30;;;;;;;54.13;29.38;;;;;;;3.67;80.39;100988.19;5069626;28;20035;-72
